sensor_id;sensor_type;location;lat;lon;timestamp;pressure;altitude;pressure_sealevel;temperature;humidity
64679;BME280;51094;53.864;27.676;2023-07-20T00:00:04;98454.44;;;16.96;62.43
64679;BME280;51094;53.864;27.676;2023-07-20T00:02:38;98398.53;;;16.63;62.70
64679;BME280;51094;53.864;27.676;2023-07-20T00:05:05;98422.84;;;16.74;62.67
64679;BME280;51094;53.864;27.676;2023-07-20T00:07:33;98421.53;;;16.70;62.60
64679;BME280;51094;53.864;27.676;2023-07-20T00:10:00;98388.72;;;16.49;63.30
64679;BME280;51094;53.864;27.676;2023-07-20T00:12:27;98462.88;;;16.76;63.60
64679;BME280;51094;53.864;27.676;2023-07-20T00:14:53;98492.91;;;16.81;63.97
64679;BME280;51094;53.864;27.676;2023-07-20T00:17:20;98488.78;;;16.87;64.18
64679;BME280;51094;53.864;27.676;2023-07-20T00:19:47;98489.44;;;16.89;64.24
64679;BME280;51094;53.864;27.676;2023-07-20T00:22:14;98479.78;;;16.81;64.14
64679;BME280;51094;53.864;27.676;2023-07-20T00:24:41;98458.91;;;16.63;64.15
64679;BME280;51094;53.864;27.676;2023-07-20T00:27:08;98489.44;;;16.89;63.94
64679;BME280;51094;53.864;27.676;2023-07-20T00:29:35;98482.03;;;16.92;63.73
64679;BME280;51094;53.864;27.676;2023-07-20T00:32:02;98425.47;;;16.49;63.44
64679;BME280;51094;53.864;27.676;2023-07-20T00:34:32;98407.13;;;16.41;63.71
64679;BME280;51094;53.864;27.676;2023-07-20T00:37:00;98458.25;;;16.61;63.54
64679;BME280;51094;53.864;27.676;2023-07-20T00:39:27;98421.34;;;16.55;63.50
64679;BME280;51094;53.864;27.676;2023-07-20T00:41:54;98418.25;;;16.51;63.29
64679;BME280;51094;53.864;27.676;2023-07-20T00:44:21;98306.19;;;15.80;63.37
64679;BME280;51094;53.864;27.676;2023-07-20T00:46:48;98457.28;;;16.79;63.10
64679;BME280;51094;53.864;27.676;2023-07-20T00:49:16;98461.72;;;16.78;63.09
64679;BME280;51094;53.864;27.676;2023-07-20T00:51:43;98376.97;;;16.29;63.18
64679;BME280;51094;53.864;27.676;2023-07-20T00:54:10;98491.03;;;16.98;62.97
64679;BME280;51094;53.864;27.676;2023-07-20T00:56:37;98344.69;;;16.04;62.85
64679;BME280;51094;53.864;27.676;2023-07-20T00:59:04;98466.34;;;16.68;62.41
64679;BME280;51094;53.864;27.676;2023-07-20T01:01:31;98485.19;;;16.80;62.67
64679;BME280;51094;53.864;27.676;2023-07-20T01:03:59;98430.59;;;16.43;62.88
64679;BME280;51094;53.864;27.676;2023-07-20T01:06:35;98428.13;;;16.33;62.58
64679;BME280;51094;53.864;27.676;2023-07-20T01:09:18;98477.97;;;16.82;62.68
64679;BME280;51094;53.864;27.676;2023-07-20T01:14:32;98372.72;;;16.20;62.53
64679;BME280;51094;53.864;27.676;2023-07-20T01:16:59;98474.31;;;16.99;61.94
64679;BME280;51094;53.864;27.676;2023-07-20T01:19:26;98425.13;;;16.60;61.87
64679;BME280;51094;53.864;27.676;2023-07-20T01:21:55;98480.53;;;16.98;62.11
64679;BME280;51094;53.864;27.676;2023-07-20T01:27:45;98398.56;;;16.47;62.10
64679;BME280;51094;53.864;27.676;2023-07-20T01:32:47;98468.56;;;16.95;61.97
64679;BME280;51094;53.864;27.676;2023-07-20T01:35:16;98482.34;;;16.98;61.61
64679;BME280;51094;53.864;27.676;2023-07-20T01:37:44;98489.25;;;16.90;61.44
64679;BME280;51094;53.864;27.676;2023-07-20T01:40:15;98485.47;;;16.93;61.83
64679;BME280;51094;53.864;27.676;2023-07-20T01:42:44;98487.44;;;16.91;61.49
64679;BME280;51094;53.864;27.676;2023-07-20T01:45:12;98481.09;;;16.85;61.55
64679;BME280;51094;53.864;27.676;2023-07-20T01:47:40;98459.91;;;16.62;61.71
64679;BME280;51094;53.864;27.676;2023-07-20T01:50:07;98477.97;;;16.82;61.81
64679;BME280;51094;53.864;27.676;2023-07-20T01:52:34;98455.50;;;16.79;61.87
64679;BME280;51094;53.864;27.676;2023-07-20T01:55:01;98449.09;;;16.74;61.72
64679;BME280;51094;53.864;27.676;2023-07-20T01:57:30;98424.31;;;16.68;61.60
64679;BME280;51094;53.864;27.676;2023-07-20T01:59:57;98427.94;;;16.75;61.69
64679;BME280;51094;53.864;27.676;2023-07-20T02:02:26;98445.31;;;16.84;61.62
64679;BME280;51094;53.864;27.676;2023-07-20T02:04:54;98480.19;;;17.09;61.58
64679;BME280;51094;53.864;27.676;2023-07-20T02:07:21;98414.47;;;16.70;61.49
64679;BME280;51094;53.864;27.676;2023-07-20T02:09:47;98475.28;;;17.06;61.29
64679;BME280;51094;53.864;27.676;2023-07-20T02:12:14;98460.38;;;16.90;61.58
64679;BME280;51094;53.864;27.676;2023-07-20T02:14:41;98464.69;;;16.83;61.50
64679;BME280;51094;53.864;27.676;2023-07-20T02:17:08;98385.31;;;16.33;61.74
64679;BME280;51094;53.864;27.676;2023-07-20T02:19:40;98475.13;;;17.00;62.10
64679;BME280;51094;53.864;27.676;2023-07-20T02:22:07;98406.91;;;16.59;62.42
64679;BME280;51094;53.864;27.676;2023-07-20T02:24:34;98450.06;;;16.89;63.13
64679;BME280;51094;53.864;27.676;2023-07-20T02:27:01;98441.88;;;16.76;63.06
64679;BME280;51094;53.864;27.676;2023-07-20T02:29:27;98489.06;;;17.00;63.43
64679;BME280;51094;53.864;27.676;2023-07-20T02:31:54;98494.00;;;17.03;63.91
64679;BME280;51094;53.864;27.676;2023-07-20T02:34:21;98488.25;;;17.00;64.38
64679;BME280;51094;53.864;27.676;2023-07-20T02:36:49;98400.03;;;16.50;64.06
64679;BME280;51094;53.864;27.676;2023-07-20T02:39:16;98486.28;;;17.02;64.38
64679;BME280;51094;53.864;27.676;2023-07-20T02:41:43;98455.66;;;16.78;64.47
64679;BME280;51094;53.864;27.676;2023-07-20T02:44:09;98469.44;;;16.88;64.99
64679;BME280;51094;53.864;27.676;2023-07-20T02:46:36;98461.88;;;16.77;64.82
64679;BME280;51094;53.864;27.676;2023-07-20T02:49:03;98488.63;;;16.88;65.21
64679;BME280;51094;53.864;27.676;2023-07-20T02:51:30;98489.56;;;16.95;65.18
64679;BME280;51094;53.864;27.676;2023-07-20T02:53:58;98496.94;;;17.00;65.21
64679;BME280;51094;53.864;27.676;2023-07-20T02:56:25;98493.00;;;17.04;65.06
64679;BME280;51094;53.864;27.676;2023-07-20T02:58:52;98460.84;;;16.94;64.93
64679;BME280;51094;53.864;27.676;2023-07-20T03:01:19;98447.78;;;16.86;64.64
64679;BME280;51094;53.864;27.676;2023-07-20T03:03:46;98430.06;;;16.72;64.80
64679;BME280;51094;53.864;27.676;2023-07-20T03:06:15;98477.91;;;16.98;64.68
64679;BME280;51094;53.864;27.676;2023-07-20T03:08:43;98479.06;;;16.95;64.94
64679;BME280;51094;53.864;27.676;2023-07-20T03:11:20;98460.09;;;16.77;65.61
64679;BME280;51094;53.864;27.676;2023-07-20T03:13:47;98486.13;;;16.95;65.71
64679;BME280;51094;53.864;27.676;2023-07-20T03:16:18;98446.81;;;16.38;66.10
64679;BME280;51094;53.864;27.676;2023-07-20T03:18:46;98480.75;;;16.88;65.95
64679;BME280;51094;53.864;27.676;2023-07-20T03:21:13;98476.44;;;16.95;66.34
64679;BME280;51094;53.864;27.676;2023-07-20T03:23:40;98476.94;;;16.91;66.09
64679;BME280;51094;53.864;27.676;2023-07-20T03:26:09;98421.53;;;16.53;66.07
64679;BME280;51094;53.864;27.676;2023-07-20T03:28:36;98484.00;;;16.90;66.06
64679;BME280;51094;53.864;27.676;2023-07-20T03:31:05;98491.75;;;16.76;65.78
64679;BME280;51094;53.864;27.676;2023-07-20T03:33:35;98500.91;;;16.63;66.30
64679;BME280;51094;53.864;27.676;2023-07-20T03:36:02;98499.09;;;16.56;66.84
64679;BME280;51094;53.864;27.676;2023-07-20T03:38:30;98444.31;;;16.04;66.74
64679;BME280;51094;53.864;27.676;2023-07-20T03:40:58;98443.69;;;16.02;66.83
64679;BME280;51094;53.864;27.676;2023-07-20T03:43:27;98500.75;;;16.33;67.33
64679;BME280;51094;53.864;27.676;2023-07-20T03:45:54;98359.66;;;15.29;67.76
64679;BME280;51094;53.864;27.676;2023-07-20T03:48:24;98458.56;;;15.85;67.86
64679;BME280;51094;53.864;27.676;2023-07-20T03:50:52;98481.53;;;16.08;68.39
64679;BME280;51094;53.864;27.676;2023-07-20T03:53:20;98511.09;;;16.26;68.32
64679;BME280;51094;53.864;27.676;2023-07-20T03:55:51;98503.69;;;16.21;68.39
64679;BME280;51094;53.864;27.676;2023-07-20T03:58:19;98502.06;;;16.20;68.31
64679;BME280;51094;53.864;27.676;2023-07-20T04:00:48;98464.47;;;16.04;68.36
64679;BME280;51094;53.864;27.676;2023-07-20T04:03:15;98496.66;;;16.30;68.38
64679;BME280;51094;53.864;27.676;2023-07-20T04:05:43;98424.69;;;16.00;68.01
64679;BME280;51094;53.864;27.676;2023-07-20T04:08:10;98421.56;;;15.96;67.75
64679;BME280;51094;53.864;27.676;2023-07-20T04:10:43;98431.06;;;15.98;68.05
64679;BME280;51094;53.864;27.676;2023-07-20T04:13:11;98497.16;;;16.42;68.35
64679;BME280;51094;53.864;27.676;2023-07-20T04:15:39;98448.44;;;15.99;67.86
64679;BME280;51094;53.864;27.676;2023-07-20T04:18:06;98485.84;;;16.25;68.35
64679;BME280;51094;53.864;27.676;2023-07-20T04:20:33;98463.53;;;16.21;68.38
64679;BME280;51094;53.864;27.676;2023-07-20T04:23:00;98461.25;;;16.26;68.11
64679;BME280;51094;53.864;27.676;2023-07-20T04:25:28;98500.91;;;16.47;67.83
64679;BME280;51094;53.864;27.676;2023-07-20T04:27:55;98498.13;;;16.57;68.28
64679;BME280;51094;53.864;27.676;2023-07-20T04:30:22;98420.91;;;16.11;67.63
64679;BME280;51094;53.864;27.676;2023-07-20T04:32:49;98510.75;;;16.53;68.04
64679;BME280;51094;53.864;27.676;2023-07-20T04:38:16;98486.47;;;16.51;68.06
64679;BME280;51094;53.864;27.676;2023-07-20T04:40:48;98487.97;;;16.70;67.74
64679;BME280;51094;53.864;27.676;2023-07-20T04:43:16;98497.28;;;16.97;67.57
64679;BME280;51094;53.864;27.676;2023-07-20T04:45:44;98505.16;;;17.05;66.80
64679;BME280;51094;53.864;27.676;2023-07-20T04:48:14;98432.84;;;16.70;66.70
64679;BME280;51094;53.864;27.676;2023-07-20T04:50:48;98423.50;;;16.68;66.53
64679;BME280;51094;53.864;27.676;2023-07-20T04:53:15;98506.91;;;17.29;66.16
64679;BME280;51094;53.864;27.676;2023-07-20T04:55:48;98473.44;;;17.23;65.79
64679;BME280;51094;53.864;27.676;2023-07-20T04:58:21;98499.78;;;17.38;64.75
64679;BME280;51094;53.864;27.676;2023-07-20T05:00:49;98408.59;;;16.68;64.88
64679;BME280;51094;53.864;27.676;2023-07-20T05:03:17;98350.25;;;16.09;65.21
64679;BME280;51094;53.864;27.676;2023-07-20T05:05:46;98457.50;;;17.24;65.05
64679;BME280;51094;53.864;27.676;2023-07-20T05:08:16;98506.28;;;17.58;64.69
64679;BME280;51094;53.864;27.676;2023-07-20T05:10:43;98447.28;;;17.29;64.58
64679;BME280;51094;53.864;27.676;2023-07-20T05:13:10;98422.88;;;17.13;63.75
64679;BME280;51094;53.864;27.676;2023-07-20T05:15:37;98481.38;;;17.46;63.73
64679;BME280;51094;53.864;27.676;2023-07-20T05:18:06;98502.84;;;17.66;63.48
64679;BME280;51094;53.864;27.676;2023-07-20T05:20:34;98475.41;;;17.68;63.93
64679;BME280;51094;53.864;27.676;2023-07-20T05:23:01;98507.44;;;17.94;62.94
64679;BME280;51094;53.864;27.676;2023-07-20T05:25:28;98374.91;;;17.19;62.95
64679;BME280;51094;53.864;27.676;2023-07-20T05:27:57;98411.16;;;17.32;62.21
64679;BME280;51094;53.864;27.676;2023-07-20T05:30:25;98507.84;;;17.83;62.83
64679;BME280;51094;53.864;27.676;2023-07-20T05:32:52;98505.22;;;17.83;62.61
64679;BME280;51094;53.864;27.676;2023-07-20T05:35:21;98506.81;;;17.92;62.62
64679;BME280;51094;53.864;27.676;2023-07-20T05:37:49;98428.94;;;17.52;62.60
64679;BME280;51094;53.864;27.676;2023-07-20T05:40:16;98434.31;;;17.67;62.23
64679;BME280;51094;53.864;27.676;2023-07-20T05:42:48;98472.41;;;18.02;61.43
64679;BME280;51094;53.864;27.676;2023-07-20T05:45:18;98480.63;;;18.22;61.48
64679;BME280;51094;53.864;27.676;2023-07-20T05:47:46;98419.31;;;17.99;60.11
64679;BME280;51094;53.864;27.676;2023-07-20T05:50:13;98457.66;;;18.16;59.49
64679;BME280;51094;53.864;27.676;2023-07-20T05:52:40;98340.25;;;17.23;59.24
64679;BME280;51094;53.864;27.676;2023-07-20T05:55:07;98485.06;;;17.99;59.97
64679;BME280;51094;53.864;27.676;2023-07-20T05:57:35;98369.19;;;17.15;60.17
64679;BME280;51094;53.864;27.676;2023-07-20T06:00:02;98484.84;;;17.77;60.70
64679;BME280;51094;53.864;27.676;2023-07-20T06:02:38;98475.28;;;17.84;61.44
64679;BME280;51094;53.864;27.676;2023-07-20T06:05:06;98412.97;;;17.62;60.94
64679;BME280;51094;53.864;27.676;2023-07-20T06:07:39;98483.84;;;18.09;60.66
64679;BME280;51094;53.864;27.676;2023-07-20T06:10:06;98481.88;;;18.11;59.79
64679;BME280;51094;53.864;27.676;2023-07-20T06:12:33;98345.03;;;17.20;60.06
64679;BME280;51094;53.864;27.676;2023-07-20T06:15:04;98448.19;;;18.07;60.22
64679;BME280;51094;53.864;27.676;2023-07-20T06:17:31;98425.09;;;18.17;60.57
64679;BME280;51094;53.864;27.676;2023-07-20T06:19:59;98416.00;;;18.42;58.97
64679;BME280;51094;53.864;27.676;2023-07-20T06:22:26;98465.19;;;18.79;58.64
64679;BME280;51094;53.864;27.676;2023-07-20T06:24:53;98394.41;;;18.47;58.75
64679;BME280;51094;53.864;27.676;2023-07-20T06:27:20;98455.13;;;19.12;58.28
64679;BME280;51094;53.864;27.676;2023-07-20T06:29:47;98458.47;;;19.21;56.99
64679;BME280;51094;53.864;27.676;2023-07-20T06:32:14;98367.94;;;18.78;57.60
64679;BME280;51094;53.864;27.676;2023-07-20T06:34:41;98352.41;;;18.83;56.70
64679;BME280;51094;53.864;27.676;2023-07-20T06:37:09;98428.59;;;19.28;55.55
64679;BME280;51094;53.864;27.676;2023-07-20T06:39:36;98425.94;;;19.43;55.98
64679;BME280;51094;53.864;27.676;2023-07-20T06:42:06;98432.56;;;19.54;54.99
64679;BME280;51094;53.864;27.676;2023-07-20T06:44:33;98352.66;;;18.88;54.00
64679;BME280;51094;53.864;27.676;2023-07-20T06:47:00;98409.50;;;19.26;54.26
64679;BME280;51094;53.864;27.676;2023-07-20T06:49:28;98430.03;;;19.46;54.54
64679;BME280;51094;53.864;27.676;2023-07-20T06:51:55;98431.03;;;19.45;53.23
64679;BME280;51094;53.864;27.676;2023-07-20T06:54:22;98379.88;;;19.24;53.86
64679;BME280;51094;53.864;27.676;2023-07-20T06:56:50;98383.94;;;19.42;52.89
64679;BME280;51094;53.864;27.676;2023-07-20T06:59:20;98377.88;;;19.26;52.67
64679;BME280;51094;53.864;27.676;2023-07-20T07:01:48;98425.13;;;19.79;53.88
64679;BME280;51094;53.864;27.676;2023-07-20T07:04:15;98354.09;;;19.56;53.77
64679;BME280;51094;53.864;27.676;2023-07-20T07:06:42;98334.00;;;19.55;52.62
64679;BME280;51094;53.864;27.676;2023-07-20T07:09:10;98425.81;;;20.30;52.20
64679;BME280;51094;53.864;27.676;2023-07-20T07:11:37;98417.88;;;20.51;51.51
64679;BME280;51094;53.864;27.676;2023-07-20T07:14:04;98419.94;;;20.56;50.94
64679;BME280;51094;53.864;27.676;2023-07-20T07:16:31;98430.41;;;20.43;50.57
64679;BME280;51094;53.864;27.676;2023-07-20T07:18:58;98384.16;;;19.62;51.24
64679;BME280;51094;53.864;27.676;2023-07-20T07:21:28;98419.53;;;19.67;52.31
64679;BME280;51094;53.864;27.676;2023-07-20T07:23:55;98442.16;;;19.76;52.53
64679;BME280;51094;53.864;27.676;2023-07-20T07:26:24;98442.13;;;19.91;51.93
64679;BME280;51094;53.864;27.676;2023-07-20T07:28:51;98424.75;;;20.03;52.32
64679;BME280;51094;53.864;27.676;2023-07-20T07:31:18;98439.28;;;20.35;51.57
64679;BME280;51094;53.864;27.676;2023-07-20T07:33:45;98403.72;;;20.10;50.28
64679;BME280;51094;53.864;27.676;2023-07-20T07:36:11;98429.72;;;20.34;51.39
64679;BME280;51094;53.864;27.676;2023-07-20T07:38:38;98423.28;;;20.65;50.67
64679;BME280;51094;53.864;27.676;2023-07-20T07:41:25;98429.75;;;20.97;50.55
64679;BME280;51094;53.864;27.676;2023-07-20T07:43:55;98416.44;;;21.11;49.66
64679;BME280;51094;53.864;27.676;2023-07-20T07:46:22;98418.56;;;21.29;48.49
64679;BME280;51094;53.864;27.676;2023-07-20T07:48:50;98343.63;;;20.68;48.60
64679;BME280;51094;53.864;27.676;2023-07-20T07:51:17;98407.09;;;20.81;49.64
64679;BME280;51094;53.864;27.676;2023-07-20T07:53:46;98416.69;;;20.88;49.96
64679;BME280;51094;53.864;27.676;2023-07-20T07:56:13;98425.06;;;20.92;49.72
64679;BME280;51094;53.864;27.676;2023-07-20T07:58:40;98351.88;;;20.51;49.52
64679;BME280;51094;53.864;27.676;2023-07-20T08:01:07;98406.91;;;20.76;49.83
64679;BME280;51094;53.864;27.676;2023-07-20T08:03:34;98411.56;;;20.74;49.98
64679;BME280;51094;53.864;27.676;2023-07-20T08:06:03;98341.16;;;20.32;50.66
64679;BME280;51094;53.864;27.676;2023-07-20T08:08:32;98374.72;;;20.66;50.13
64679;BME280;51094;53.864;27.676;2023-07-20T08:10:59;98419.97;;;20.90;49.76
64679;BME280;51094;53.864;27.676;2023-07-20T08:13:32;98402.00;;;20.73;50.17
64679;BME280;51094;53.864;27.676;2023-07-20T08:15:59;98386.28;;;20.65;50.85
64679;BME280;51094;53.864;27.676;2023-07-20T08:18:26;98415.81;;;20.75;50.55
64679;BME280;51094;53.864;27.676;2023-07-20T08:20:53;98212.00;;;19.25;50.60
64679;BME280;51094;53.864;27.676;2023-07-20T08:23:20;98397.19;;;20.06;51.48
64679;BME280;51094;53.864;27.676;2023-07-20T08:25:47;98285.69;;;19.33;51.52
64679;BME280;51094;53.864;27.676;2023-07-20T08:28:15;98423.94;;;20.24;52.10
64679;BME280;51094;53.864;27.676;2023-07-20T08:30:46;98399.13;;;20.18;51.50
64679;BME280;51094;53.864;27.676;2023-07-20T08:33:14;98369.03;;;20.13;51.55
64679;BME280;51094;53.864;27.676;2023-07-20T08:35:42;98391.84;;;20.20;50.43
64679;BME280;51094;53.864;27.676;2023-07-20T08:38:09;98414.25;;;20.31;50.80
64679;BME280;51094;53.864;27.676;2023-07-20T08:40:44;98386.16;;;20.23;51.28
64679;BME280;51094;53.864;27.676;2023-07-20T08:43:13;98406.03;;;20.69;51.95
64679;BME280;51094;53.864;27.676;2023-07-20T08:45:41;98405.59;;;21.00;51.01
64679;BME280;51094;53.864;27.676;2023-07-20T08:48:09;98398.56;;;21.13;51.17
64679;BME280;51094;53.864;27.676;2023-07-20T08:50:36;98342.41;;;21.11;49.87
64679;BME280;51094;53.864;27.676;2023-07-20T08:53:03;98401.78;;;21.56;48.48
64679;BME280;51094;53.864;27.676;2023-07-20T08:55:30;98409.56;;;21.65;48.82
64679;BME280;51094;53.864;27.676;2023-07-20T08:57:59;98386.50;;;21.52;47.89
64679;BME280;51094;53.864;27.676;2023-07-20T09:00:26;98355.94;;;21.36;48.26
64679;BME280;51094;53.864;27.676;2023-07-20T09:02:55;98331.69;;;21.19;48.04
64679;BME280;51094;53.864;27.676;2023-07-20T09:05:23;98359.25;;;21.51;48.21
64679;BME280;51094;53.864;27.676;2023-07-20T09:07:52;98390.59;;;21.68;47.10
64679;BME280;51094;53.864;27.676;2023-07-20T09:10:21;98386.41;;;21.25;46.81
64679;BME280;51094;53.864;27.676;2023-07-20T09:12:48;98411.31;;;21.03;48.09
64679;BME280;51094;53.864;27.676;2023-07-20T09:15:15;98409.75;;;20.81;48.10
64679;BME280;51094;53.864;27.676;2023-07-20T09:17:49;98395.56;;;20.54;48.65
64679;BME280;51094;53.864;27.676;2023-07-20T09:20:17;98402.28;;;20.56;49.10
64679;BME280;51094;53.864;27.676;2023-07-20T09:22:50;98231.91;;;19.49;49.51
64679;BME280;51094;53.864;27.676;2023-07-20T09:25:19;98400.50;;;20.64;49.56
64679;BME280;51094;53.864;27.676;2023-07-20T09:27:49;98401.22;;;20.79;49.23
64679;BME280;51094;53.864;27.676;2023-07-20T09:30:18;98400.13;;;21.01;48.49
64679;BME280;51094;53.864;27.676;2023-07-20T09:32:47;98419.28;;;21.10;48.20
64679;BME280;51094;53.864;27.676;2023-07-20T09:35:19;98401.66;;;21.23;47.10
64679;BME280;51094;53.864;27.676;2023-07-20T09:37:57;98358.84;;;21.00;47.29
64679;BME280;51094;53.864;27.676;2023-07-20T09:40:28;98346.28;;;21.09;48.08
64679;BME280;51094;53.864;27.676;2023-07-20T09:42:59;98363.66;;;21.31;46.65
64679;BME280;51094;53.864;27.676;2023-07-20T09:45:39;98395.31;;;21.72;46.22
64679;BME280;51094;53.864;27.676;2023-07-20T09:48:25;98398.38;;;21.82;45.86
64679;BME280;51094;53.864;27.676;2023-07-20T09:50:56;98316.94;;;21.51;45.69
64679;BME280;51094;53.864;27.676;2023-07-20T09:53:25;98426.97;;;22.20;44.85
64679;BME280;51094;53.864;27.676;2023-07-20T09:55:53;98380.34;;;22.06;45.07
64679;BME280;51094;53.864;27.676;2023-07-20T09:58:21;98380.53;;;22.24;44.97
64679;BME280;51094;53.864;27.676;2023-07-20T10:00:50;98367.91;;;22.26;43.34
64679;BME280;51094;53.864;27.676;2023-07-20T10:03:21;98378.47;;;22.19;44.03
64679;BME280;51094;53.864;27.676;2023-07-20T10:05:54;98342.22;;;21.94;43.64
64679;BME280;51094;53.864;27.676;2023-07-20T10:08:29;98344.66;;;21.88;42.68
64679;BME280;51094;53.864;27.676;2023-07-20T10:10:59;98291.09;;;21.53;43.47
64679;BME280;51094;53.864;27.676;2023-07-20T10:13:29;98404.38;;;22.37;42.81
64679;BME280;51094;53.864;27.676;2023-07-20T10:16:02;98432.28;;;22.46;43.39
64679;BME280;51094;53.864;27.676;2023-07-20T10:21:19;98370.13;;;22.36;42.33
64679;BME280;51094;53.864;27.676;2023-07-20T10:23:49;98364.63;;;22.17;41.64
64679;BME280;51094;53.864;27.676;2023-07-20T10:26:17;98346.28;;;21.83;42.54
64679;BME280;51094;53.864;27.676;2023-07-20T10:28:44;98349.31;;;21.86;42.82
64679;BME280;51094;53.864;27.676;2023-07-20T10:31:12;98380.31;;;22.19;42.63
64679;BME280;51094;53.864;27.676;2023-07-20T10:33:40;98377.88;;;22.11;42.41
64679;BME280;51094;53.864;27.676;2023-07-20T10:36:07;98373.19;;;22.33;42.41
64679;BME280;51094;53.864;27.676;2023-07-20T10:41:35;98389.38;;;23.02;42.42
64679;BME280;51094;53.864;27.676;2023-07-20T10:44:12;98274.16;;;22.40;41.43
64679;BME280;51094;53.864;27.676;2023-07-20T10:49:09;98389.13;;;23.23;40.34
64679;BME280;51094;53.864;27.676;2023-07-20T10:51:43;98375.06;;;23.16;40.44
64679;BME280;51094;53.864;27.676;2023-07-20T10:56:48;98328.25;;;22.91;40.25
64679;BME280;51094;53.864;27.676;2023-07-20T10:59:20;98338.78;;;23.04;40.20
64679;BME280;51094;53.864;27.676;2023-07-20T11:01:47;98389.59;;;23.52;40.90
64679;BME280;51094;53.864;27.676;2023-07-20T11:04:17;98400.78;;;23.67;39.72
64679;BME280;51094;53.864;27.676;2023-07-20T11:06:46;98369.88;;;23.79;38.94
64679;BME280;51094;53.864;27.676;2023-07-20T11:09:14;98401.09;;;24.09;38.40
64679;BME280;51094;53.864;27.676;2023-07-20T11:11:43;98326.16;;;23.82;38.25
64679;BME280;51094;53.864;27.676;2023-07-20T11:14:20;98355.50;;;23.49;39.09
64679;BME280;51094;53.864;27.676;2023-07-20T11:16:49;98348.59;;;23.03;39.47
64679;BME280;51094;53.864;27.676;2023-07-20T11:19:22;98384.53;;;22.93;38.56
64679;BME280;51094;53.864;27.676;2023-07-20T11:21:56;98390.66;;;22.73;38.72
64679;BME280;51094;53.864;27.676;2023-07-20T11:24:30;98336.91;;;22.46;39.11
64679;BME280;51094;53.864;27.676;2023-07-20T11:26:58;98386.19;;;22.87;39.14
64679;BME280;51094;53.864;27.676;2023-07-20T11:29:25;98369.25;;;22.88;38.85
64679;BME280;51094;53.864;27.676;2023-07-20T11:31:56;98232.50;;;22.09;39.28
64679;BME280;51094;53.864;27.676;2023-07-20T11:34:25;98369.97;;;23.15;39.19
64679;BME280;51094;53.864;27.676;2023-07-20T11:36:54;98338.53;;;23.18;38.85
64679;BME280;51094;53.864;27.676;2023-07-20T11:39:24;98375.91;;;23.55;37.90
64679;BME280;51094;53.864;27.676;2023-07-20T11:41:55;98376.53;;;23.57;38.09
64679;BME280;51094;53.864;27.676;2023-07-20T11:44:23;98341.91;;;23.39;38.40
64679;BME280;51094;53.864;27.676;2023-07-20T11:47:05;98237.88;;;22.47;39.01
64679;BME280;51094;53.864;27.676;2023-07-20T11:49:36;98363.88;;;23.08;39.07
64679;BME280;51094;53.864;27.676;2023-07-20T11:52:08;98233.88;;;22.12;39.32
64679;BME280;51094;53.864;27.676;2023-07-20T11:54:38;98257.28;;;22.21;39.92
64679;BME280;51094;53.864;27.676;2023-07-20T11:57:06;98336.88;;;22.53;40.81
64679;BME280;51094;53.864;27.676;2023-07-20T11:59:34;98306.19;;;22.19;41.80
64679;BME280;51094;53.864;27.676;2023-07-20T12:02:02;98371.91;;;22.62;43.04
64679;BME280;51094;53.864;27.676;2023-07-20T12:04:33;98363.56;;;22.58;43.03
64679;BME280;51094;53.864;27.676;2023-07-20T12:07:00;98309.16;;;22.55;43.05
64679;BME280;51094;53.864;27.676;2023-07-20T12:09:27;98378.31;;;23.18;42.80
64679;BME280;51094;53.864;27.676;2023-07-20T12:12:11;98370.63;;;22.97;41.48
64679;BME280;51094;53.864;27.676;2023-07-20T12:14:39;98376.00;;;22.64;42.16
64679;BME280;51094;53.864;27.676;2023-07-20T12:17:08;98349.56;;;22.24;42.16
64679;BME280;51094;53.864;27.676;2023-07-20T12:19:39;98302.31;;;21.62;42.80
64679;BME280;51094;53.864;27.676;2023-07-20T12:22:07;98362.13;;;21.76;43.71
64679;BME280;51094;53.864;27.676;2023-07-20T12:24:34;98351.13;;;21.60;44.29
64679;BME280;51094;53.864;27.676;2023-07-20T12:27:02;98356.81;;;21.56;44.93
64679;BME280;51094;53.864;27.676;2023-07-20T12:29:30;98387.13;;;21.54;45.10
64679;BME280;51094;53.864;27.676;2023-07-20T12:31:58;98379.31;;;21.33;45.07
64679;BME280;51094;53.864;27.676;2023-07-20T12:34:26;98200.78;;;19.93;45.45
64679;BME280;51094;53.864;27.676;2023-07-20T12:36:52;98296.63;;;20.56;45.95
64679;BME280;51094;53.864;27.676;2023-07-20T12:39:21;98342.72;;;20.88;45.87
64679;BME280;51094;53.864;27.676;2023-07-20T12:41:47;98304.38;;;20.30;46.02
64679;BME280;51094;53.864;27.676;2023-07-20T12:44:14;98387.97;;;21.13;46.02
64679;BME280;51094;53.864;27.676;2023-07-20T12:46:41;98304.25;;;20.73;45.68
64679;BME280;51094;53.864;27.676;2023-07-20T12:49:08;98357.00;;;21.01;45.66
64679;BME280;51094;53.864;27.676;2023-07-20T12:51:35;98292.41;;;20.62;45.66
64679;BME280;51094;53.864;27.676;2023-07-20T12:54:02;98337.75;;;21.13;45.07
64679;BME280;51094;53.864;27.676;2023-07-20T12:56:29;98374.25;;;21.38;44.81
64679;BME280;51094;53.864;27.676;2023-07-20T12:58:59;98372.81;;;21.35;44.94
64679;BME280;51094;53.864;27.676;2023-07-20T13:01:26;98379.13;;;21.34;45.15
64679;BME280;51094;53.864;27.676;2023-07-20T13:03:53;98377.88;;;21.30;45.52
64679;BME280;51094;53.864;27.676;2023-07-20T13:06:24;98337.06;;;20.98;45.68
64679;BME280;51094;53.864;27.676;2023-07-20T13:08:53;98375.59;;;21.20;45.42
64679;BME280;51094;53.864;27.676;2023-07-20T13:11:23;98305.03;;;20.67;45.55
64679;BME280;51094;53.864;27.676;2023-07-20T13:13:50;98272.91;;;20.63;45.75
64679;BME280;51094;53.864;27.676;2023-07-20T13:16:17;98358.75;;;21.21;45.94
64679;BME280;51094;53.864;27.676;2023-07-20T13:18:44;98367.34;;;21.37;45.13